METAR AND TAF INFORMATION
METAR FOR LCEN
ADDS - METARS form results

(1700 UTC 30 November 2022)
Data provider http://aviationweather.gov/metar/data/
 
METAR text: LCEN 301650Z 00000KT 9999 SCT020 SCT025 17/14 Q1017 NOSIG
Conditions at: LCEN (ERCAN , CY) observed 1650 UTC 30 November 2022
Temperature: 17.0°C (63°F)
Dewpoint: 14.0°C (57°F) [RH = 82%]
Pressure (altimeter): 30.03 inches Hg (1017.0 mb)
Winds: calm
Visibility: 6 or more miles (10+ km)
Ceiling: at least 12,000 feet AGL
Clouds: scattered clouds at 2000 feet AGL
scattered clouds at 2500 feet AGL
Weather: no significant weather observed at this time

METAR text: LCEN 301620Z 16003KT 9999 SCT020 SCT025 17/14 Q1016 NOSIG RMK RWY11 18003KT
Conditions at: LCEN (ERCAN , CY) observed 1620 UTC 30 November 2022
Temperature: 17.0°C (63°F)
Dewpoint: 14.0°C (57°F) [RH = 82%]
Pressure (altimeter): 30.00 inches Hg (1016.0 mb)
Winds: from the SSE (160 degrees) at 3 MPH (3 knots; 1.5 m/s)
Visibility: 6 or more miles (10+ km)
Ceiling: at least 12,000 feet AGL
Clouds: scattered clouds at 2000 feet AGL
scattered clouds at 2500 feet AGL
Weather: no significant weather observed at this time

Forecast for: LCEN (ERCAN , CY)
Text: TAF LCEN 301040Z 3012/0112 16015KT 9999 FEW025
Forecast period: 1200 UTC 30 November 2022 to 1200 UTC 01 December 2022
Forecast type: FROM: standard forecast or significant change
Winds: from the SSE (160 degrees) at 17 MPH (15 knots; 7.7 m/s)
Visibility: 6 or more miles (10+ km)
Ceiling: at least 12,000 feet AGL
Clouds: few clouds at 2500 feet AGL
Weather: no significant weather forecast for this period
Text: TEMPO 3012/3016 -SHRA BKN025
Forecast period: 1200 to 1600 UTC 30 November 2022
Forecast type: TEMPORARY: The following changes expected for less than half the time period
Visibility: missing
Ceiling: 2500 feet AGL
Clouds: broken clouds at 2500 feet AGL
Weather: -SHRA  (light rain showers)

 AIRPORT MAP

 RUNWAY INFORMATION
Runway 11 Runway length 9039 ft Runway width 148 ft
Runway elevation 402 ft Runway displaced threshold 0 ft Runway heading 107
Runway 29 Runway length 9039 ft Runway width 148 ft
Runway elevation 402 ft Runway displaced threshold 0 ft Runway heading 287

 AIRPORT FREQUENCIES
Type Enroute Name Ercan Rada Frequency 126.7 MHZ
Type Ercan Appr Name Frequency 126.9 MHZ
Type Ercan Atis Name Frequency 118.35 MHZ
Type Ercan Towe Name Frequency 120.2 MHZ

 AIRPORT NEAR NAVIGATION AIDS

Designed by Bursa Virtual Airlines | Hosted in MirzaCloud